Time;durP1;ratioP1;P1;durP2;ratioP2;P2;SDS_P1;SDS_P2;PMS_P1;PMS_P2;Temp;Humidity;BMP_temperature;BMP_pressure;BME280_temperature;BME280_humidity;BME280_pressure;Samples;Min_cycle;Max_cycle;Signal;HPM_P1;HPM_P2
2022/03/04 00:00:36;;;;;;;;;;;;;;;-147.53;100.00;59759.91;4999527;28;19918;-80
2022/03/04 00:03:01;;;;;;;;;;;;;;;-147.53;100.00;59759.91;4999997;28;19933;-79
2022/03/04 00:05:26;;;;;;;;;;;;;;;-147.53;100.00;59759.91;4999389;28;19921;-79
2022/03/04 00:07:52;;;;;;;;;;;;;;;-147.53;100.00;59759.91;5001699;28;20310;-81
2022/03/04 00:10:17;;;;;;;;;;;;;;;-147.53;100.00;59759.91;5003813;28;19920;-81
2022/03/04 00:12:44;;;;;;;;;;;;;;;-147.53;100.00;59759.91;5003959;28;20366;-80
2022/03/04 00:15:09;;;;;;;;;;;;;;;-147.53;100.00;59759.91;5003717;28;19917;-80
2022/03/04 00:17:35;;;;;;;;;;;;;;;-147.53;100.00;59759.91;5019974;28;19968;-80
2022/03/04 00:20:00;;;;;;;;;;;;;;;-147.53;100.00;59759.91;5003465;28;19917;-82
2022/03/04 00:22:26;;;;;;;;;;;;;;;-147.53;100.00;59759.91;5002725;28;19924;-80
2022/03/04 00:24:51;;;;;;;;;;;;;;;-147.53;100.00;59759.91;5004151;28;19917;-81
2022/03/04 00:27:16;;;;;;;;;;;;;;;-147.53;100.00;59759.91;5003421;28;20379;-80
2022/03/04 00:29:41;;;;;;;;;;;;;;;-147.53;100.00;59759.91;5019569;28;19914;-80
2022/03/04 00:32:08;;;;;;;;;;;;;;;-147.53;100.00;59759.91;5002128;28;19928;-80
2022/03/04 00:34:33;;;;;;;;;;;;;;;-147.53;100.00;59759.91;5003357;28;20294;-81
2022/03/04 00:36:59;;;;;;;;;;;;;;;-147.53;100.00;59759.91;5002701;28;19914;-82
2022/03/04 00:39:24;;;;;;;;;;;;;;;-147.53;100.00;59759.91;5019816;28;20040;-81
2022/03/04 00:41:49;;;;;;;;;;;;;;;-147.53;100.00;59759.91;5003825;28;19924;-80
2022/03/04 00:44:14;;;;;;;;;;;;;;;-147.53;100.00;59759.91;5021437;28;19943;-81
2022/03/04 00:46:40;;;;;;;;;;;;;;;-147.53;100.00;59759.91;5003160;28;19918;-81
2022/03/04 00:49:05;;;;;;;;;;;;;;;-147.53;100.00;59759.91;5003063;28;19917;-80
2022/03/04 00:51:30;;;;;;;;;;;;;;;-147.53;100.00;59759.91;5021373;28;20355;-81
2022/03/04 00:53:56;;;;;;;;;;;;;;;-147.53;100.00;59759.91;5003172;28;19918;-82
2022/03/04 00:56:21;;;;;;;;;;;;;;;-147.53;100.00;59759.91;5003815;28;20450;-81
2022/03/04 00:58:46;;;;;;;;;;;;;;;-147.53;100.00;59759.91;5020207;28;19925;-81
2022/03/04 01:01:11;;;;;;;;;;;;;;;-147.53;100.00;59759.91;5019919;28;19917;-80
2022/03/04 01:03:37;;;;;;;;;;;;;;;-147.53;100.00;59759.91;5003844;28;19961;-80
2022/03/04 01:06:04;;;;;;;;;;;;;;;-147.53;100.00;59759.91;5019270;28;19968;-80
2022/03/04 01:08:29;;;;;;;;;;;;;;;-147.53;100.00;59759.91;5021513;28;19917;-79
2022/03/04 01:10:54;;;;;;;;;;;;;;;-147.53;100.00;59759.91;5002527;28;19924;-80
2022/03/04 01:13:21;;;;;;;;;;;;;;;-147.53;100.00;59759.91;5020378;28;20397;-81
2022/03/04 01:15:46;;;;;;;;;;;;;;;-147.53;100.00;59759.91;5002986;28;19973;-79
2022/03/04 01:18:11;;;;;;;;;;;;;;;-147.53;100.00;59759.91;5001915;28;19918;-81
2022/03/04 01:20:37;;;;;;;;;;;;;;;-147.53;100.00;59759.91;5001259;28;19924;-80
2022/03/04 01:23:02;;;;;;;;;;;;;;;-147.53;100.00;59759.91;5020627;28;19956;-77
2022/03/04 01:25:27;;;;;;;;;;;;;;;-147.53;100.00;59759.91;5002543;28;19923;-80
2022/03/04 01:27:52;;;;;;;;;;;;;;;-147.53;100.00;59759.91;5003388;28;20489;-80
2022/03/04 01:30:18;;;;;;;;;;;;;;;-147.53;100.00;59759.91;5003760;28;20390;-80
2022/03/04 01:32:44;;;;;;;;;;;;;;;-147.53;100.00;59759.91;5020480;28;19943;-79
2022/03/04 01:35:09;;;;;;;;;;;;;;;-147.53;100.00;59759.91;5022056;28;19930;-79
2022/03/04 01:37:36;;;;;;;;;;;;;;;-147.53;100.00;59759.91;5004131;28;19980;-79
2022/03/04 01:40:06;;;;;;;;;;;;;;;-147.53;100.00;59759.91;5019053;28;19921;-78
2022/03/04 01:42:33;;;;;;;;;;;;;;;-147.53;100.00;59759.91;5002586;28;19917;-79
2022/03/04 01:44:58;;;;;;;;;;;;;;;-147.53;100.00;59759.91;5003736;28;19918;-78
2022/03/04 01:47:24;;;;;;;;;;;;;;;-147.53;100.00;59759.91;5003530;28;19960;-79
2022/03/04 01:49:49;;;;;;;;;;;;;;;-147.53;100.00;59759.91;5003711;28;20355;-80
2022/03/04 01:52:15;;;;;;;;;;;;;;;-147.53;100.00;59759.91;5020396;28;19918;-79
2022/03/04 01:54:40;;;;;;;;;;;;;;;-147.53;100.00;59759.91;5021039;28;19994;-79
2022/03/04 01:57:06;;;;;;;;;;;;;;;-147.53;100.00;59759.91;5003511;28;19924;-78
2022/03/04 01:59:31;;;;;;;;;;;;;;;-147.53;100.00;59759.91;5019802;28;19917;-79
2022/03/04 02:01:56;;;;;;;;;;;;;;;-147.53;100.00;59759.91;5003707;28;19925;-79
2022/03/04 02:04:25;;;;;;;;;;;;;;;-147.53;100.00;59759.91;5003230;28;19924;-79
2022/03/04 02:06:50;;;;;;;;;;;;;;;-147.53;100.00;59759.91;5019134;28;19924;-79
2022/03/04 02:09:16;;;;;;;;;;;;;;;-147.53;100.00;59759.91;5021093;28;19956;-79
2022/03/04 02:11:43;;;;;;;;;;;;;;;-147.53;100.00;59759.91;5003763;28;19906;-80
2022/03/04 02:14:10;;;;;;;;;;;;;;;-147.53;100.00;59759.91;5020211;28;19932;-78
2022/03/04 02:16:40;;;;;;;;;;;;;;;-147.53;100.00;59759.91;5002909;28;19913;-81
2022/03/04 02:19:05;;;;;;;;;;;;;;;-147.53;100.00;59759.91;5019411;28;19924;-78
2022/03/04 02:21:31;;;;;;;;;;;;;;;-147.53;100.00;59759.91;5020261;28;19917;-79
2022/03/04 02:23:57;;;;;;;;;;;;;;;-147.53;100.00;59759.91;5003452;28;19923;-78
2022/03/04 02:26:22;;;;;;;;;;;;;;;-147.53;100.00;59759.91;5020606;28;19961;-80
2022/03/04 02:28:47;;;;;;;;;;;;;;;-147.53;100.00;59759.91;5003338;28;19917;-79
2022/03/04 02:31:13;;;;;;;;;;;;;;;-147.53;100.00;59759.91;5020111;28;19917;-79
2022/03/04 02:33:38;;;;;;;;;;;;;;;-147.53;100.00;59759.91;5002233;28;20302;-79
2022/03/04 02:36:04;;;;;;;;;;;;;;;-147.53;100.00;59759.91;5002776;28;19917;-79
2022/03/04 02:38:29;;;;;;;;;;;;;;;-147.53;100.00;59759.91;5002886;28;20382;-79
2022/03/04 02:40:54;;;;;;;;;;;;;;;-147.53;100.00;59759.91;5002421;28;20016;-78
2022/03/04 02:43:20;;;;;;;;;;;;;;;-147.53;100.00;59759.91;5020163;28;19917;-79
2022/03/04 02:45:45;;;;;;;;;;;;;;;-147.53;100.00;59759.91;5019892;28;19976;-80
2022/03/04 02:48:11;;;;;;;;;;;;;;;-147.53;100.00;59759.91;5002441;28;19917;-81
2022/03/04 02:50:36;;;;;;;;;;;;;;;-147.53;100.00;59759.91;5001515;28;19925;-81
2022/03/04 02:53:01;;;;;;;;;;;;;;;-147.53;100.00;59759.91;5019228;28;20382;-80
2022/03/04 02:55:26;;;;;;;;;;;;;;;-147.53;100.00;59759.91;5002388;28;19925;-81
2022/03/04 02:57:51;;;;;;;;;;;;;;;-147.53;100.00;59759.91;5003196;28;19924;-79
2022/03/04 03:00:17;;;;;;;;;;;;;;;-147.53;100.00;59759.91;5020487;28;19917;-80
2022/03/04 03:02:43;;;;;;;;;;;;;;;-147.53;100.00;59759.91;5019727;28;20424;-79
2022/03/04 03:05:09;;;;;;;;;;;;;;;-147.53;100.00;59759.91;5018186;28;19925;-79
2022/03/04 03:07:34;;;;;;;;;;;;;;;-147.53;100.00;59759.91;5017879;28;20417;-81
2022/03/04 03:10:00;;;;;;;;;;;;;;;-147.53;100.00;59759.91;5018704;28;20363;-80
2022/03/04 03:12:25;;;;;;;;;;;;;;;-147.53;100.00;59759.91;5000969;28;20008;-80
2022/03/04 03:14:51;;;;;;;;;;;;;;;-147.53;100.00;59759.91;5000498;28;19987;-80
2022/03/04 03:17:16;;;;;;;;;;;;;;;-147.53;100.00;59759.91;5017419;28;19924;-80
2022/03/04 03:19:41;;;;;;;;;;;;;;;-147.53;100.00;59759.91;5000914;28;20386;-81
2022/03/04 03:22:06;;;;;;;;;;;;;;;-147.53;100.00;59759.91;5017435;28;20371;-79
2022/03/04 03:24:32;;;;;;;;;;;;;;;-147.53;100.00;59759.91;5001585;28;19964;-79
2022/03/04 03:26:57;;;;;;;;;;;;;;;-147.53;100.00;59759.91;5000834;28;19988;-79
2022/03/04 03:29:22;;;;;;;;;;;;;;;-147.53;100.00;59759.91;5001535;28;19918;-80
2022/03/04 03:31:47;;;;;;;;;;;;;;;-147.53;100.00;59759.91;5017987;28;19924;-79
2022/03/04 03:34:14;;;;;;;;;;;;;;;-147.53;100.00;59759.91;5001247;28;19929;-79
2022/03/04 03:36:39;;;;;;;;;;;;;;;-147.53;100.00;59759.91;5017752;28;20016;-79
2022/03/04 03:39:04;;;;;;;;;;;;;;;-147.53;100.00;59759.91;5000184;28;20513;-79
2022/03/04 03:41:29;;;;;;;;;;;;;;;-147.53;100.00;59759.91;5017567;28;19972;-79
2022/03/04 03:43:55;;;;;;;;;;;;;;;-147.53;100.00;59759.91;5000331;28;20391;-78
2022/03/04 03:46:20;;;;;;;;;;;;;;;-147.53;100.00;59759.91;5018719;28;20525;-78
2022/03/04 03:48:45;;;;;;;;;;;;;;;-147.53;100.00;59759.91;5017525;28;19908;-78
2022/03/04 03:51:10;;;;;;;;;;;;;;;-147.53;100.00;59759.91;5018381;28;19921;-79
2022/03/04 03:53:36;;;;;;;;;;;;;;;-147.53;100.00;59759.91;5000917;28;19918;-77
2022/03/04 03:56:02;;;;;;;;;;;;;;;-147.53;100.00;59759.91;5001014;28;20390;-79
2022/03/04 03:58:27;;;;;;;;;;;;;;;-147.53;100.00;59759.91;5000979;28;19921;-79
2022/03/04 04:00:52;;;;;;;;;;;;;;;-147.53;100.00;59759.91;5001390;28;19949;-79
2022/03/04 04:03:17;;;;;;;;;;;;;;;-147.53;100.00;59759.91;5001108;28;19921;-79
2022/03/04 04:05:43;;;;;;;;;;;;;;;-147.53;100.00;59759.91;5018972;28;19985;-78
2022/03/04 04:08:08;;;;;;;;;;;;;;;-147.53;100.00;59759.91;5002062;28;19949;-80
2022/03/04 04:10:33;;;;;;;;;;;;;;;-147.53;100.00;59759.91;5018165;28;19921;-79
2022/03/04 04:12:58;;;;;;;;;;;;;;;-147.53;100.00;59759.91;5001585;28;20367;-79
2022/03/04 04:15:24;;;;;;;;;;;;;;;-147.53;100.00;59759.91;5001707;28;19924;-78
2022/03/04 04:17:49;;;;;;;;;;;;;;;-147.53;100.00;59759.91;5019646;28;19925;-79
2022/03/04 04:20:14;;;;;;;;;;;;;;;-147.53;100.00;59759.91;5001619;28;20008;-79
2022/03/04 04:22:40;;;;;;;;;;;;;;;-147.53;100.00;59759.91;5002042;28;19913;-79
2022/03/04 04:25:05;;;;;;;;;;;;;;;-147.53;100.00;59759.91;5001540;28;20351;-80
2022/03/04 04:27:30;;;;;;;;;;;;;;;-147.53;100.00;59759.91;5018534;28;19916;-81
2022/03/04 04:29:55;;;;;;;;;;;;;;;-147.53;100.00;59759.91;5001392;28;19925;-79
2022/03/04 04:32:21;;;;;;;;;;;;;;;-147.53;100.00;59759.91;5017780;28;19918;-79
2022/03/04 04:34:46;;;;;;;;;;;;;;;-147.53;100.00;59759.91;5001499;28;20472;-78
2022/03/04 04:37:11;;;;;;;;;;;;;;;-147.53;100.00;59759.91;5001294;28;19906;-79
2022/03/04 04:39:36;;;;;;;;;;;;;;;-147.53;100.00;59759.91;5000796;28;20016;-78
2022/03/04 04:42:02;;;;;;;;;;;;;;;-147.53;100.00;59759.91;5017906;28;19917;-78
2022/03/04 04:44:27;;;;;;;;;;;;;;;-147.53;100.00;59759.91;5000822;28;19941;-79
2022/03/04 04:46:52;;;;;;;;;;;;;;;-147.53;100.00;59759.91;5001032;28;19925;-79
2022/03/04 04:49:17;;;;;;;;;;;;;;;-147.53;100.00;59759.91;5000598;28;19918;-79
2022/03/04 04:51:43;;;;;;;;;;;;;;;-147.53;100.00;59759.91;5018423;28;20135;-79
2022/03/04 04:54:08;;;;;;;;;;;;;;;-147.53;100.00;59759.91;5019266;28;19953;-79
2022/03/04 04:56:33;;;;;;;;;;;;;;;-147.53;100.00;59759.91;5020535;28;19921;-79
2022/03/04 04:58:58;;;;;;;;;;;;;;;-147.53;100.00;59759.91;5020647;28;19922;-79
2022/03/04 05:01:23;;;;;;;;;;;;;;;-147.53;100.00;59759.91;5004870;28;20268;-78
2022/03/04 05:03:49;;;;;;;;;;;;;;;-147.53;100.00;59759.91;5022572;28;20368;-78
2022/03/04 05:06:14;;;;;;;;;;;;;;;-147.53;100.00;59759.91;5021720;28;20339;-79
2022/03/04 05:08:39;;;;;;;;;;;;;;;-147.53;100.00;59759.91;5004584;28;19928;-80
2022/03/04 05:11:04;;;;;;;;;;;;;;;-147.53;100.00;59759.91;5021258;28;19918;-79
2022/03/04 05:13:29;;;;;;;;;;;;;;;-147.53;100.00;59759.91;5020478;28;19913;-78
2022/03/04 05:15:55;;;;;;;;;;;;;;;-147.53;100.00;59759.91;5004121;28;20008;-79
2022/03/04 05:18:20;;;;;;;;;;;;;;;-147.53;100.00;59759.91;5019743;28;19984;-80
2022/03/04 05:20:45;;;;;;;;;;;;;;;-147.53;100.00;59759.91;5003577;28;20335;-79
2022/03/04 05:23:11;;;;;;;;;;;;;;;-147.53;100.00;59759.91;5003335;28;19931;-79
2022/03/04 05:25:36;;;;;;;;;;;;;;;-147.53;100.00;59759.91;5003530;28;20366;-78
2022/03/04 05:28:01;;;;;;;;;;;;;;;-147.53;100.00;59759.91;5004074;28;20011;-80
2022/03/04 05:30:26;;;;;;;;;;;;;;;-147.53;100.00;59759.91;5020745;28;20398;-79
2022/03/04 05:32:52;;;;;;;;;;;;;;;-147.53;100.00;59759.91;5003603;28;19925;-79
2022/03/04 05:35:17;;;;;;;;;;;;;;;-147.53;100.00;59759.91;5020833;28;20331;-79
2022/03/04 05:37:42;;;;;;;;;;;;;;;-147.53;100.00;59759.91;5019447;28;20446;-79
2022/03/04 05:40:08;;;;;;;;;;;;;;;-147.53;100.00;59759.91;5002753;28;19905;-78
2022/03/04 05:42:33;;;;;;;;;;;;;;;-147.53;100.00;59759.91;5002883;28;20337;-78
2022/03/04 05:44:58;;;;;;;;;;;;;;;-147.53;100.00;59759.91;5018431;28;19918;-78
2022/03/04 05:47:23;;;;;;;;;;;;;;;-147.53;100.00;59759.91;5018895;28;19928;-79
2022/03/04 05:49:49;;;;;;;;;;;;;;;-147.53;100.00;59759.91;5017513;28;19918;-79
2022/03/04 05:52:14;;;;;;;;;;;;;;;-147.53;100.00;59759.91;5018078;28;19943;-80
2022/03/04 05:54:39;;;;;;;;;;;;;;;-147.53;100.00;59759.91;5017146;28;19918;-80
2022/03/04 05:57:06;;;;;;;;;;;;;;;-147.53;100.00;59759.91;5016267;28;19917;-80
2022/03/04 05:59:31;;;;;;;;;;;;;;;-147.53;100.00;59759.91;5018348;28;19917;-79
2022/03/04 06:01:56;;;;;;;;;;;;;;;-147.53;100.00;59759.91;5016240;28;20260;-78
2022/03/04 06:04:22;;;;;;;;;;;;;;;-147.53;100.00;59759.91;5018020;28;20339;-79
2022/03/04 06:06:48;;;;;;;;;;;;;;;-147.53;100.00;59759.91;5017737;28;19924;-79
2022/03/04 06:09:13;;;;;;;;;;;;;;;-147.53;100.00;59759.91;5000311;28;19917;-79
2022/03/04 06:11:38;;;;;;;;;;;;;;;-147.53;100.00;59759.91;5017877;28;19917;-79
2022/03/04 06:14:04;;;;;;;;;;;;;;;-147.53;100.00;59759.91;4999641;28;19928;-79
2022/03/04 06:16:29;;;;;;;;;;;;;;;-147.53;100.00;59759.91;5000069;28;19924;-80
2022/03/04 06:18:54;;;;;;;;;;;;;;;-147.53;100.00;59759.91;4999464;28;19917;-80
2022/03/04 06:21:20;;;;;;;;;;;;;;;-147.53;100.00;59759.91;5017622;28;19921;-80
2022/03/04 06:23:45;;;;;;;;;;;;;;;-147.53;100.00;59759.91;5017505;28;20028;-79
2022/03/04 06:26:10;;;;;;;;;;;;;;;-147.53;100.00;59759.91;5000195;28;19909;-80
2022/03/04 06:28:36;;;;;;;;;;;;;;;-147.53;100.00;59759.91;5017568;28;19921;-79
2022/03/04 06:31:01;;;;;;;;;;;;;;;-147.53;100.00;59759.91;5015620;28;19965;-80
2022/03/04 06:33:33;;;;;;;;;;;;;;;-147.53;100.00;59759.91;5016265;28;19922;-80
2022/03/04 06:36:06;;;;;;;;;;;;;;;-147.53;100.00;59759.91;5016379;28;19922;-82
2022/03/04 06:38:32;;;;;;;;;;;;;;;-147.53;100.00;59759.91;5000256;28;19944;-81
2022/03/04 06:40:58;;;;;;;;;;;;;;;-147.53;100.00;59759.91;5000530;28;19925;-80
2022/03/04 06:43:23;;;;;;;;;;;;;;;-147.53;100.00;59759.91;5018079;28;20341;-81
2022/03/04 06:45:49;;;;;;;;;;;;;;;-147.53;100.00;59759.91;4999955;28;19917;-81
2022/03/04 06:48:14;;;;;;;;;;;;;;;-147.53;100.00;59759.91;4999823;28;19944;-80
2022/03/04 06:50:40;;;;;;;;;;;;;;;-147.53;100.00;59759.91;5017664;28;20395;-80
2022/03/04 06:53:05;;;;;;;;;;;;;;;-147.53;100.00;59759.91;4998340;28;19925;-80
2022/03/04 06:55:31;;;;;;;;;;;;;;;-147.53;100.00;59759.91;5018491;28;19963;-80
2022/03/04 06:57:56;;;;;;;;;;;;;;;-147.53;100.00;59759.91;4998882;28;20015;-82
2022/03/04 07:00:22;;;;;;;;;;;;;;;-147.53;100.00;59759.91;5016028;28;19924;-83
2022/03/04 07:02:48;;;;;;;;;;;;;;;-147.53;100.00;59759.91;5017348;28;20306;-82
2022/03/04 07:05:13;;;;;;;;;;;;;;;-147.53;100.00;59759.91;5015637;28;19936;-80
2022/03/04 07:07:39;;;;;;;;;;;;;;;-147.53;100.00;59759.91;5016785;28;19917;-81
2022/03/04 07:10:04;;;;;;;;;;;;;;;-147.53;100.00;59759.91;4997670;28;19913;-80
2022/03/04 07:12:30;;;;;;;;;;;;;;;-147.53;100.00;59759.91;4997801;28;19941;-79
2022/03/04 07:14:55;;;;;;;;;;;;;;;-147.53;100.00;59759.91;5015844;28;19917;-80
2022/03/04 07:17:21;;;;;;;;;;;;;;;-147.53;100.00;59759.91;4998383;28;19975;-82
2022/03/04 07:19:46;;;;;;;;;;;;;;;-147.53;100.00;59759.91;5015448;28;19924;-83
2022/03/04 07:22:11;;;;;;;;;;;;;;;-147.53;100.00;59759.91;4998646;28;19928;-83
2022/03/04 07:24:36;;;;;;;;;;;;;;;-147.53;100.00;59759.91;4998555;28;19924;-81
2022/03/04 07:27:02;;;;;;;;;;;;;;;-147.53;100.00;59759.91;4997696;28;19917;-83
2022/03/04 07:29:28;;;;;;;;;;;;;;;-147.53;100.00;59759.91;5016645;28;19917;-79
2022/03/04 07:31:53;;;;;;;;;;;;;;;-147.53;100.00;59759.91;5016864;28;20252;-81
2022/03/04 07:34:23;;;;;;;;;;;;;;;-147.53;100.00;59759.91;5016543;28;20382;-83
2022/03/04 07:36:48;;;;;;;;;;;;;;;-147.53;100.00;59759.91;5015731;28;19917;-80
2022/03/04 07:39:14;;;;;;;;;;;;;;;-147.53;100.00;59759.91;5015300;28;19949;-80
2022/03/04 07:41:39;;;;;;;;;;;;;;;-147.53;100.00;59759.91;4999325;28;19925;-80
2022/03/04 07:44:05;;;;;;;;;;;;;;;-147.53;100.00;59759.91;5014937;28;19925;-79
2022/03/04 07:46:30;;;;;;;;;;;;;;;-147.53;100.00;59759.91;5016048;28;20252;-80
2022/03/04 07:48:55;;;;;;;;;;;;;;;-147.53;100.00;59759.91;5016351;28;19926;-79
2022/03/04 07:51:20;;;;;;;;;;;;;;;-147.53;100.00;59759.91;4998944;28;20377;-78
2022/03/04 07:53:46;;;;;;;;;;;;;;;-147.53;100.00;59759.91;4998743;28;19956;-79
2022/03/04 07:56:11;;;;;;;;;;;;;;;-147.53;100.00;59759.91;4998488;28;20366;-79
2022/03/04 07:58:37;;;;;;;;;;;;;;;-147.53;100.00;59759.91;4998623;28;20306;-80
2022/03/04 08:01:02;;;;;;;;;;;;;;;-147.53;100.00;59759.91;5015583;28;20012;-77
2022/03/04 08:03:27;;;;;;;;;;;;;;;-147.53;100.00;59759.91;4994521;28;19968;-79
2022/03/04 08:05:53;;;;;;;;;;;;;;;-147.53;100.00;59759.91;5014407;28;20466;-79
2022/03/04 08:08:18;;;;;;;;;;;;;;;-147.53;100.00;59759.91;5007337;28;20018;-79
2022/03/04 08:10:43;;;;;;;;;;;;;;;-147.53;100.00;59759.91;4979011;28;19925;-79
2022/03/04 08:13:08;;;;;;;;;;;;;;;-147.53;100.00;59759.91;4996731;28;19917;-79
2022/03/04 08:15:33;;;;;;;;;;;;;;;-147.53;100.00;59759.91;4996956;28;19969;-79
2022/03/04 08:17:59;;;;;;;;;;;;;;;-147.53;100.00;59759.91;4996913;28;19922;-79
2022/03/04 08:20:26;;;;;;;;;;;;;;;-147.53;100.00;59759.91;4998452;28;20078;-78
2022/03/04 08:22:52;;;;;;;;;;;;;;;-147.53;100.00;59759.91;4988674;28;19921;-80
2022/03/04 08:25:17;;;;;;;;;;;;;;;-147.53;100.00;59759.91;5005149;28;19918;-80
2022/03/04 08:27:42;;;;;;;;;;;;;;;-147.53;100.00;59759.91;4986559;28;20401;-79
2022/03/04 08:30:08;;;;;;;;;;;;;;;-147.53;100.00;59759.91;4990671;28;20013;-79
2022/03/04 08:32:34;;;;;;;;;;;;;;;-147.53;100.00;59759.91;4988578;28;19925;-78
2022/03/04 08:35:00;;;;;;;;;;;;;;;-147.53;100.00;59759.91;5025223;28;20000;-80
2022/03/04 08:37:25;;;;;;;;;;;;;;;-147.53;100.00;59759.91;4992151;28;19971;-78
2022/03/04 08:39:50;;;;;;;;;;;;;;;-147.53;100.00;59759.91;5020331;28;19924;-79
2022/03/04 08:42:16;;;;;;;;;;;;;;;-147.53;100.00;59759.91;4991404;28;19925;-80
2022/03/04 08:44:42;;;;;;;;;;;;;;;-147.53;100.00;59759.91;4990987;28;20363;-78
2022/03/04 08:47:07;;;;;;;;;;;;;;;-147.53;100.00;59759.91;5026043;28;19947;-80
2022/03/04 08:49:33;;;;;;;;;;;;;;;-147.53;100.00;59759.91;5008474;28;20390;-81
2022/03/04 08:51:59;;;;;;;;;;;;;;;-147.53;100.00;59759.91;4989107;28;20008;-81
2022/03/04 08:54:24;;;;;;;;;;;;;;;-147.53;100.00;59759.91;4991427;28;19994;-82
2022/03/04 08:56:52;;;;;;;;;;;;;;;-147.53;100.00;59759.91;5009556;28;19922;-81
2022/03/04 08:59:17;;;;;;;;;;;;;;;-147.53;100.00;59759.91;5004634;28;20363;-82
2022/03/04 09:01:42;;;;;;;;;;;;;;;-147.53;100.00;59759.91;4989046;28;19912;-80
2022/03/04 09:04:08;;;;;;;;;;;;;;;-147.53;100.00;59759.91;4985608;28;19921;-82
2022/03/04 09:06:33;;;;;;;;;;;;;;;-147.53;100.00;59759.91;4990272;28;20221;-81
2022/03/04 09:09:01;;;;;;;;;;;;;;;-147.53;100.00;59759.91;4992331;28;19918;-82
2022/03/04 09:11:26;;;;;;;;;;;;;;;-147.53;100.00;59759.91;4990384;28;19928;-82
2022/03/04 09:13:52;;;;;;;;;;;;;;;-147.53;100.00;59759.91;5019558;28;19929;-82
2022/03/04 09:16:17;;;;;;;;;;;;;;;-147.53;100.00;59759.91;5004728;28;20401;-82
2022/03/04 09:18:42;;;;;;;;;;;;;;;-147.53;100.00;59759.91;4990309;28;19913;-83
2022/03/04 09:21:08;;;;;;;;;;;;;;;-147.53;100.00;59759.91;4991027;28;20435;-83
2022/03/04 09:23:37;;;;;;;;;;;;;;;-147.53;100.00;59759.91;4990135;28;20383;-82
2022/03/04 09:26:02;;;;;;;;;;;;;;;-147.53;100.00;59759.91;5021680;28;19917;-82
2022/03/04 09:28:27;;;;;;;;;;;;;;;-147.53;100.00;59759.91;5010374;28;19914;-83
2022/03/04 09:30:53;;;;;;;;;;;;;;;-147.53;100.00;59759.91;4988842;28;19929;-83
2022/03/04 09:33:18;;;;;;;;;;;;;;;-147.53;100.00;59759.91;5021334;28;20011;-83
2022/03/04 09:35:43;;;;;;;;;;;;;;;-147.53;100.00;59759.91;4986366;28;19914;-84
2022/03/04 09:38:09;;;;;;;;;;;;;;;-147.53;100.00;59759.91;5008116;28;19925;-84
2022/03/04 09:40:34;;;;;;;;;;;;;;;-147.53;100.00;59759.91;5009196;28;20267;-82
2022/03/04 09:43:00;;;;;;;;;;;;;;;-147.53;100.00;59759.91;4992317;28;19918;-83
2022/03/04 09:45:25;;;;;;;;;;;;;;;-147.53;100.00;59759.91;5010058;28;20371;-82
2022/03/04 09:47:51;;;;;;;;;;;;;;;-147.53;100.00;59759.91;4986434;28;20000;-82
2022/03/04 09:50:16;;;;;;;;;;;;;;;-147.53;100.00;59759.91;4991282;28;19921;-84
2022/03/04 09:52:42;;;;;;;;;;;;;;;-147.53;100.00;59759.91;4991869;28;19918;-81
2022/03/04 09:55:08;;;;;;;;;;;;;;;-147.53;100.00;59759.91;4997213;28;19925;-83
2022/03/04 09:57:33;;;;;;;;;;;;;;;-147.53;100.00;59759.91;4999101;28;19918;-82
2022/03/04 09:59:58;;;;;;;;;;;;;;;-147.53;100.00;59759.91;5011133;28;19953;-84
2022/03/04 10:02:25;;;;;;;;;;;;;;;-147.53;100.00;59759.91;5004688;28;20016;-82
2022/03/04 10:04:57;;;;;;;;;;;;;;;-147.53;100.00;59759.91;5022948;28;19922;-80
2022/03/04 10:07:23;;;;;;;;;;;;;;;-147.53;100.00;59759.91;4987937;28;19918;-80
2022/03/04 10:09:49;;;;;;;;;;;;;;;-147.53;100.00;59759.91;5001443;28;19910;-81
2022/03/04 10:12:15;;;;;;;;;;;;;;;-147.53;100.00;59759.91;5006005;28;19969;-80
2022/03/04 10:14:59;;;;;;;;;;;;;;;-147.53;100.00;59759.91;5009951;28;20351;-81
2022/03/04 10:17:25;;;;;;;;;;;;;;;-147.53;100.00;59759.91;5008264;28;19922;-85
2022/03/04 10:19:56;;;;;;;;;;;;;;;-147.53;100.00;59759.91;4987074;28;19918;-81
2022/03/04 10:22:22;;;;;;;;;;;;;;;-147.53;100.00;59759.91;5000047;28;20012;-83
2022/03/04 10:24:47;;;;;;;;;;;;;;;-147.53;100.00;59759.91;4992994;28;19953;-82
2022/03/04 10:27:16;;;;;;;;;;;;;;;-147.53;100.00;59759.91;5013816;28;19977;-85
2022/03/04 10:29:50;;;;;;;;;;;;;;;-147.53;100.00;59759.91;5008571;28;20375;-86
2022/03/04 10:32:20;;;;;;;;;;;;;;;-147.53;100.00;59759.91;4992135;28;19921;-85
2022/03/04 10:34:48;;;;;;;;;;;;;;;-147.53;100.00;59759.91;4989853;28;20517;-84
2022/03/04 10:37:16;;;;;;;;;;;;;;;-147.53;100.00;59759.91;5020861;28;20418;-84
2022/03/04 10:39:56;;;;;;;;;;;;;;;-147.53;100.00;59759.91;5029089;28;20548;-84
2022/03/04 10:42:36;;;;;;;;;;;;;;;-147.53;100.00;59759.91;5006273;28;19965;-85
2022/03/04 10:45:07;;;;;;;;;;;;;;;-147.53;100.00;59759.91;4984179;28;19922;-85
2022/03/04 10:47:46;;;;;;;;;;;;;;;-147.53;100.00;59759.91;5006326;28;19918;-84
2022/03/04 10:50:16;;;;;;;;;;;;;;;-147.53;100.00;59759.91;5000228;28;19913;-86
2022/03/04 10:52:48;;;;;;;;;;;;;;;-147.53;100.00;59759.91;4998304;28;20016;-88
2022/03/04 10:55:23;;;;;;;;;;;;;;;-147.53;100.00;59759.91;5000159;28;20064;-85
2022/03/04 10:57:48;;;;;;;;;;;;;;;-147.53;100.00;59759.91;5017880;28;19917;-86
2022/03/04 11:00:22;;;;;;;;;;;;;;;-147.53;100.00;59759.91;5017983;28;19928;-85
2022/03/04 11:02:48;;;;;;;;;;;;;;;-147.53;100.00;59759.91;5018293;28;19969;-87
2022/03/04 11:05:13;;;;;;;;;;;;;;;-147.53;100.00;59759.91;5016979;28;20398;-85
2022/03/04 11:07:41;;;;;;;;;;;;;;;-147.53;100.00;59759.91;5017385;28;19952;-87
2022/03/04 11:10:06;;;;;;;;;;;;;;;-147.53;100.00;59759.91;4999799;28;19925;-86
2022/03/04 11:12:32;;;;;;;;;;;;;;;-147.53;100.00;59759.91;4999724;28;19932;-85
2022/03/04 11:14:57;;;;;;;;;;;;;;;-147.53;100.00;59759.91;4999619;28;19925;-86
2022/03/04 11:17:24;;;;;;;;;;;;;;;-147.53;100.00;59759.91;5016722;28;19944;-86
2022/03/04 11:19:50;;;;;;;;;;;;;;;-147.53;100.00;59759.91;5001428;28;19922;-87
2022/03/04 11:22:16;;;;;;;;;;;;;;;-147.53;100.00;59759.91;5002170;28;20429;-86
2022/03/04 11:24:41;;;;;;;;;;;;;;;-147.53;100.00;59759.91;5019102;28;19918;-86
2022/03/04 11:27:20;;;;;;;;;;;;;;;;;;5096842;27;19916;-87
2022/03/04 11:29:45;;;;;;;;;;;;;;;;;;5095609;28;19924;-85
2022/03/04 11:32:11;;;;;;;;;;;;;;;;;;5095407;28;19932;-85
2022/03/04 11:34:36;;;;;;;;;;;;;;;;;;5093344;28;19912;-83
2022/03/04 11:37:01;;;;;;;;;;;;;;;;;;5094179;28;19909;-86
2022/03/04 11:39:27;;;;;;;;;;;;;;;;;;5094072;28;19908;-85
2022/03/04 11:41:53;;;;;;;;;;;;;;;;;;5095175;28;20435;-87
2022/03/04 11:44:18;;;;;;;;;;;;;;;;;;5093431;28;19909;-87
2022/03/04 11:46:43;;;;;;;;;;;;;;;;;;5094036;28;19916;-85
2022/03/04 11:49:08;;;;;;;;;;;;;;;;;;5093367;28;20007;-83
2022/03/04 11:51:33;;;;;;;;;;;;;;;;;;5092535;28;19908;-85
2022/03/04 11:53:58;;;;;;;;;;;;;;;;;;5095121;28;20365;-88
2022/03/04 11:56:25;;;;;;;;;;;;;;;;;;5094219;28;19923;-86
2022/03/04 11:58:50;;;;;;;;;;;;;;;;;;5096110;28;19919;-86
2022/03/04 12:01:15;;;;;;;;;;;;;;;;;;5096276;28;20011;-86
2022/03/04 12:03:40;;;;;;;;;;;;;;;;;;5093657;28;19930;-87
2022/03/04 12:06:06;;;;;;;;;;;;;;;;;;5092489;28;20255;-83
2022/03/04 12:08:31;;;;;;;;;;;;;;;;;;5093749;28;19908;-85
2022/03/04 12:10:56;;;;;;;;;;;;;;;;;;5094123;28;19909;-84
2022/03/04 12:13:21;;;;;;;;;;;;;;;;;;5094047;28;19920;-86
2022/03/04 12:15:47;;;;;;;;;;;;;;;;;;5095197;28;20417;-83
2022/03/04 12:18:12;;;;;;;;;;;;;;;;;;5093216;28;19912;-82
2022/03/04 12:20:37;;;;;;;;;;;;;;;;;;5091908;28;19916;-82
2022/03/04 12:23:02;;;;;;;;;;;;;;;;;;5091114;28;19920;-83
2022/03/04 12:25:27;;;;;;;;;;;;;;;;;;5090640;28;19956;-83
2022/03/04 12:27:52;;;;;;;;;;;;;;;;;;5074738;28;19909;-81